createdAt,value
2022-08-25T00:03:35.985Z,83.13
2022-08-25T00:07:41.707Z,82.82
2022-08-25T00:11:45.618Z,82.98
2022-08-25T00:15:47.958Z,83.08
2022-08-25T00:19:50.307Z,83.17
2022-08-25T00:23:53.342Z,83.11
2022-08-25T00:27:55.571Z,83.15
2022-08-25T00:31:58.967Z,83.15
2022-08-25T00:36:01.087Z,83.08
2022-08-25T00:40:06.360Z,82.87
2022-08-25T00:44:12.097Z,82.78
2022-08-25T00:48:14.434Z,82.76
2022-08-25T00:52:23.216Z,82.99
2022-08-25T00:56:26.981Z,83.42
2022-08-25T01:00:37.130Z,83.38
2022-08-25T01:04:39.275Z,83.47
2022-08-25T01:08:41.762Z,83.23
2022-08-25T01:12:44.289Z,83.58
2022-08-25T01:16:50.957Z,83.34
2022-08-25T01:20:59.761Z,83.38
2022-08-25T01:25:08.334Z,83.84
2022-08-25T01:29:26.728Z,85.06
2022-08-25T01:33:54.223Z,85.29
2022-08-25T01:37:56.430Z,85.15
2022-08-25T01:42:10.996Z,85.03
2022-08-25T01:46:33.069Z,85.07
2022-08-25T01:50:35.320Z,84.84
2022-08-25T01:54:37.558Z,85.01
2022-08-25T01:58:43.250Z,84.69
2022-08-25T02:02:45.869Z,84.61
2022-08-25T02:06:49.466Z,84.66
2022-08-25T02:10:55.361Z,84.66
2022-08-25T02:14:59.276Z,84.92
2022-08-25T02:19:01.643Z,85.59
2022-08-25T02:23:04.606Z,85.91
2022-08-25T02:27:06.748Z,86.27
2022-08-25T02:31:09.538Z,86.42
2022-08-25T02:35:12.888Z,86.10
2022-08-25T02:39:15.027Z,86.33
2022-08-25T02:43:17.093Z,86.21
2022-08-25T02:47:20.230Z,86.16
2022-08-25T02:51:29.920Z,85.92
2022-08-25T02:55:34.518Z,85.60
2022-08-25T02:59:38.813Z,86.24
2022-08-25T03:03:43.965Z,85.57
2022-08-25T03:07:46.300Z,85.82
2022-08-25T03:11:49.281Z,86.50
2022-08-25T03:15:52.613Z,86.90
2022-08-25T03:19:54.851Z,87.18
2022-08-25T03:23:56.999Z,87.47
2022-08-25T03:27:59.304Z,86.52
2022-08-25T03:32:01.922Z,85.89
2022-08-25T03:36:05.557Z,86.52
2022-08-25T03:40:15.377Z,87.08
2022-08-25T03:44:21.340Z,87.44
2022-08-25T03:48:23.422Z,87.43
2022-08-25T03:52:26.407Z,87.58
2022-08-25T03:56:28.629Z,87.04
2022-08-25T04:00:30.883Z,86.70
2022-08-25T04:04:33.713Z,86.90
2022-08-25T04:08:36.468Z,86.85
2022-08-25T04:12:38.773Z,86.86
2022-08-25T04:16:41.113Z,86.48
2022-08-25T04:20:46.553Z,86.61
2022-08-25T04:24:49.212Z,86.76
2022-08-25T04:28:52.620Z,86.75
2022-08-25T04:32:54.842Z,86.73
2022-08-25T04:37:01.402Z,86.63
2022-08-25T04:41:06.439Z,86.58
2022-08-25T04:45:09.639Z,86.74
2022-08-25T04:49:12.251Z,86.67
2022-08-25T04:53:21.233Z,86.07
2022-08-25T04:57:23.442Z,85.94
2022-08-25T05:01:26.126Z,85.90
2022-08-25T05:05:28.350Z,85.27
2022-08-25T05:09:32.442Z,85.35
2022-08-25T05:13:36.425Z,85.23
2022-08-25T05:17:39.975Z,84.90
2022-08-25T05:21:42.876Z,84.48
2022-08-25T05:25:45.123Z,84.51
2022-08-25T05:29:47.319Z,84.24
2022-08-25T05:33:50.706Z,84.35
2022-08-25T05:37:52.877Z,84.13
2022-08-25T05:41:55.267Z,83.91
2022-08-25T05:45:58.817Z,83.94
2022-08-25T05:50:02.440Z,83.77
2022-08-25T05:54:05.041Z,83.27
2022-08-25T05:58:07.371Z,82.80
2022-08-25T06:02:30.715Z,82.75
2022-08-25T06:06:32.931Z,82.73
2022-08-25T06:10:37.794Z,82.65
2022-08-25T06:14:46.201Z,82.54
2022-08-25T06:18:48.365Z,82.23
2022-08-25T06:22:50.925Z,82.14
2022-08-25T06:26:55.460Z,82.14
2022-08-25T06:30:59.848Z,81.70
2022-08-25T06:35:15.985Z,81.31
2022-08-25T06:39:18.096Z,81.43
2022-08-25T06:43:22.798Z,81.18
2022-08-25T06:47:24.920Z,80.83
2022-08-25T06:51:27.190Z,80.63
2022-08-25T06:55:29.170Z,80.46
2022-08-25T06:59:32.336Z,80.24
2022-08-25T07:03:34.664Z,79.86
2022-08-25T07:07:43.729Z,79.90
2022-08-25T07:11:46.552Z,79.78
2022-08-25T07:15:59.836Z,79.58
2022-08-25T07:20:02.107Z,79.36
2022-08-25T07:24:26.501Z,78.97
2022-08-25T07:28:28.592Z,78.40
2022-08-25T07:32:30.672Z,77.95
2022-08-25T07:36:33.190Z,77.71
2022-08-25T07:40:37.728Z,76.94
2022-08-25T07:44:44.857Z,76.08
2022-08-25T07:48:53.210Z,75.58
2022-08-25T07:52:57.546Z,74.69
2022-08-25T07:56:59.664Z,73.99
2022-08-25T08:01:02.691Z,73.33
2022-08-25T08:05:05.727Z,71.75
2022-08-25T08:09:13.172Z,71.02
2022-08-25T08:13:18.425Z,69.63
2022-08-25T08:17:21.888Z,69.17
2022-08-25T08:21:30.634Z,67.86
2022-08-25T08:25:32.832Z,66.16
2022-08-25T08:29:36.454Z,64.88
2022-08-25T08:33:40.818Z,64.06
2022-08-25T08:37:43.986Z,63.16
2022-08-25T08:42:18.490Z,61.11
2022-08-25T08:46:23.163Z,60.22
2022-08-25T08:50:42.163Z,59.68
2022-08-25T08:54:50.366Z,58.40
2022-08-25T08:59:00.540Z,57.28
2022-08-25T09:03:27.702Z,57.06
2022-08-25T09:07:42.083Z,56.45
2022-08-25T09:11:47.478Z,55.51
2022-08-25T09:16:23.320Z,54.49
2022-08-25T09:21:21.615Z,53.31
2022-08-25T09:30:05.383Z,51.76
2022-08-25T09:34:19.863Z,50.26
2022-08-25T09:38:23.294Z,49.59
2022-08-25T09:42:50.350Z,49.26
2022-08-25T09:47:15.066Z,49.37
2022-08-25T09:51:42.844Z,48.54
2022-08-25T09:56:00.203Z,46.45
2022-08-25T10:00:33.742Z,44.10
2022-08-25T10:04:38.658Z,43.80
2022-08-25T10:08:45.157Z,44.02
2022-08-25T10:12:51.085Z,42.89
2022-08-25T10:17:13.590Z,41.70
2022-08-25T10:21:18.594Z,39.59
2022-08-25T10:25:28.456Z,40.71
2022-08-25T10:29:52.704Z,40.97
2022-08-25T10:34:20.956Z,38.96
2022-08-25T10:38:36.615Z,38.07
2022-08-25T10:43:19.562Z,38.69
2022-08-25T10:47:57.157Z,38.55
2022-08-25T10:52:10.184Z,39.36
2022-08-25T10:56:40.130Z,39.50
2022-08-25T11:01:03.671Z,39.00
2022-08-25T11:05:45.098Z,38.62
2022-08-25T11:09:52.693Z,38.18
2022-08-25T11:14:01.181Z,39.20
2022-08-25T11:18:14.704Z,38.88
2022-08-25T11:22:27.039Z,38.10
2022-08-25T11:26:36.944Z,36.73
2022-08-25T11:30:40.805Z,36.51
2022-08-25T11:34:43.849Z,36.77
2022-08-25T11:38:52.419Z,36.54
2022-08-25T11:43:46.273Z,37.15
2022-08-25T11:48:15.053Z,36.72
2022-08-25T11:52:35.707Z,35.71
2022-08-25T11:56:41.400Z,36.49
2022-08-25T12:00:44.165Z,35.61
2022-08-25T12:04:46.364Z,35.23
2022-08-25T12:09:12.815Z,35.91
2022-08-25T12:13:41.565Z,35.59
2022-08-25T12:17:44.182Z,34.53
2022-08-25T12:21:46.405Z,34.27
2022-08-25T12:25:53.693Z,34.24
2022-08-25T12:29:55.513Z,33.35
2022-08-25T12:34:30.685Z,34.19
2022-08-25T12:38:46.284Z,34.45
2022-08-25T12:43:06.347Z,33.29
2022-08-25T12:47:24.304Z,33.35
2022-08-25T12:51:32.557Z,32.71
2022-08-25T12:55:36.021Z,31.76
2022-08-25T12:59:45.763Z,31.84
2022-08-25T13:04:00.698Z,32.09
2022-08-25T13:08:21.861Z,31.20
2022-08-25T13:12:32.216Z,31.93
2022-08-25T13:16:34.775Z,31.65
2022-08-25T13:20:36.845Z,32.02
2022-08-25T13:24:44.494Z,32.56
2022-08-25T13:28:54.778Z,31.88
2022-08-25T13:32:57.946Z,31.88
2022-08-25T13:37:27.250Z,31.70
2022-08-25T13:41:33.887Z,31.50
2022-08-25T13:45:46.359Z,31.52
2022-08-25T13:49:48.443Z,30.86
2022-08-25T13:54:00.304Z,30.86
2022-08-25T13:58:03.707Z,30.83
2022-08-25T14:02:07.819Z,30.84
2022-08-25T14:06:17.427Z,31.22
2022-08-25T14:10:34.741Z,31.00
2022-08-25T14:14:40.666Z,31.26
2022-08-25T14:18:51.468Z,31.16
2022-08-25T14:22:58.319Z,31.13
2022-08-25T14:27:04.042Z,31.47
2022-08-25T14:31:09.164Z,31.01
2022-08-25T14:35:11.719Z,31.13
2022-08-25T14:39:19.660Z,30.98
2022-08-25T14:43:31.289Z,30.86
2022-08-25T14:47:36.729Z,31.18
2022-08-25T14:51:43.406Z,31.41
2022-08-25T14:55:45.777Z,31.04
2022-08-25T14:59:48.156Z,31.36
2022-08-25T15:03:55.357Z,31.78
2022-08-25T15:08:16.373Z,31.81
2022-08-25T15:12:37.398Z,31.52
2022-08-25T15:16:51.101Z,31.41
2022-08-25T15:20:53.440Z,31.96
2022-08-25T15:24:55.610Z,31.93
2022-08-25T15:28:57.727Z,32.10
2022-08-25T15:32:59.870Z,32.43
2022-08-25T15:37:11.978Z,32.48
2022-08-25T15:41:14.093Z,32.78
2022-08-25T15:45:16.329Z,32.76
2022-08-25T15:49:23.494Z,32.92
2022-08-25T15:53:29.382Z,32.90
2022-08-25T15:57:31.622Z,33.07
2022-08-25T16:01:37.213Z,33.09
2022-08-25T16:05:47.885Z,33.25
2022-08-25T16:09:51.138Z,33.67
2022-08-25T16:13:54.446Z,33.88
2022-08-25T16:18:00.079Z,34.07
2022-08-25T16:22:03.027Z,34.59
2022-08-25T16:26:10.649Z,34.87
2022-08-25T16:30:17.604Z,35.34
2022-08-25T16:34:20.191Z,35.59
2022-08-25T16:38:22.478Z,35.87
2022-08-25T16:42:24.684Z,36.26
2022-08-25T16:46:29.148Z,36.59
2022-08-25T16:50:32.721Z,37.07
2022-08-25T16:54:58.332Z,37.28
2022-08-25T16:59:02.556Z,37.95
2022-08-25T17:03:06.093Z,38.23
2022-08-25T17:07:08.470Z,38.37
2022-08-25T17:11:13.770Z,38.47
2022-08-25T17:15:21.966Z,38.93
2022-08-25T17:19:27.325Z,39.14
2022-08-25T17:23:30.827Z,39.37
2022-08-25T17:27:33.312Z,39.86
2022-08-25T17:31:39.356Z,40.25
2022-08-25T17:35:44.058Z,40.82
2022-08-25T17:39:46.251Z,41.28
2022-08-25T17:43:52.478Z,41.96
2022-08-25T17:47:55.920Z,42.53
2022-08-25T17:51:58.973Z,43.36
2022-08-25T17:56:06.771Z,44.15
2022-08-25T18:00:11.699Z,44.92
2022-08-25T18:04:17.937Z,45.29
2022-08-25T18:08:21.979Z,46.10
2022-08-25T18:12:35.858Z,47.01
2022-08-25T18:16:39.082Z,47.82
2022-08-25T18:20:45.622Z,48.47
2022-08-25T18:24:47.855Z,49.27
2022-08-25T18:28:49.974Z,49.64
2022-08-25T18:32:52.169Z,50.26
2022-08-25T18:36:54.486Z,51.02
2022-08-25T18:41:02.557Z,51.66
2022-08-25T18:45:06.473Z,52.28
2022-08-25T18:49:08.762Z,52.77
2022-08-25T18:53:12.130Z,53.54
2022-08-25T18:57:14.303Z,54.05
2022-08-25T19:01:18.536Z,54.53
2022-08-25T19:05:25.049Z,54.99
2022-08-25T19:09:27.644Z,55.48
2022-08-25T19:13:30.657Z,55.69
2022-08-25T19:17:37.457Z,56.10
2022-08-25T19:21:41.609Z,56.83
2022-08-25T19:25:43.754Z,57.38
2022-08-25T19:29:45.876Z,57.86
2022-08-25T19:33:50.530Z,58.10
2022-08-25T19:37:54.532Z,58.49
2022-08-25T19:41:56.818Z,59.11
2022-08-25T19:45:59.585Z,59.39
2022-08-25T19:50:01.770Z,60.25
2022-08-25T19:54:05.222Z,60.98
2022-08-25T19:58:11.072Z,61.66
2022-08-25T20:02:19.899Z,61.87
2022-08-25T20:06:22.209Z,62.05
2022-08-25T20:10:27.595Z,62.25
2022-08-25T20:14:32.493Z,62.68
2022-08-25T20:18:34.646Z,62.64
2022-08-25T20:22:37.928Z,62.78
2022-08-25T20:26:40.836Z,62.71
2022-08-25T20:31:13.483Z,63.02
2022-08-25T20:35:17.595Z,64.04
2022-08-25T20:39:21.156Z,64.80
2022-08-25T20:43:23.318Z,65.26
2022-08-25T20:47:25.607Z,65.23
2022-08-25T20:51:28.427Z,65.00
2022-08-25T20:55:31.773Z,65.20
2022-08-25T20:59:42.451Z,65.62
2022-08-25T21:03:45.384Z,65.53
2022-08-25T21:07:50.086Z,65.69
2022-08-25T21:11:54.462Z,65.86
2022-08-25T21:15:56.528Z,65.54
2022-08-25T21:19:58.694Z,66.24
2022-08-25T21:24:00.951Z,66.89
2022-08-25T21:28:03.242Z,67.07
2022-08-25T21:32:05.531Z,66.91
2022-08-25T21:36:09.763Z,67.11
2022-08-25T21:40:12.369Z,67.02
2022-08-25T21:44:14.574Z,66.95
2022-08-25T21:48:16.775Z,67.07
2022-08-25T21:52:18.976Z,67.26
2022-08-25T21:56:22.209Z,67.75
2022-08-25T22:00:28.725Z,68.00
2022-08-25T22:04:31.944Z,67.96
2022-08-25T22:08:35.885Z,67.52
2022-08-25T22:12:38.967Z,67.73
2022-08-25T22:16:42.214Z,68.36
2022-08-25T22:20:44.466Z,68.66
2022-08-25T22:24:46.612Z,68.68
2022-08-25T22:28:48.870Z,68.70
2022-08-25T22:32:52.529Z,68.62
2022-08-25T22:36:54.565Z,69.05
2022-08-25T22:41:02.284Z,69.61
2022-08-25T22:45:06.718Z,70.15
2022-08-25T22:49:08.911Z,70.08
2022-08-25T22:53:11.317Z,69.96
2022-08-25T22:57:13.398Z,70.27
2022-08-25T23:01:18.481Z,70.37
2022-08-25T23:05:20.781Z,70.38
2022-08-25T23:09:23.220Z,70.55
2022-08-25T23:13:34.108Z,70.70
2022-08-25T23:17:37.334Z,71.01
2022-08-25T23:21:58.570Z,70.74
2022-08-25T23:26:00.768Z,70.79
2022-08-25T23:30:03.625Z,70.63
2022-08-25T23:34:06.429Z,70.25
2022-08-25T23:38:10.808Z,70.46
2022-08-25T23:42:12.958Z,70.99
2022-08-25T23:46:17.739Z,71.61
2022-08-25T23:50:19.839Z,71.61
2022-08-25T23:54:22.294Z,71.58
2022-08-25T23:58:33.342Z,71.53
